x

San Juan, Pr (41053) Weather Station

4:30am - Sun 26th Apr 2015 All times are AST. -4 hours from GMT.

  • Wind
    7mph, 11mph gusts
  • Air Temp 79°f
  • Sea Pressure 1012.5mb
  • San Juan, Pr
  • San Juan, Pr

More Historic Weather Station data

Upgrade to MSW Pro to gain access to the past 30 days of data for over 8000 Wavebouys and Weather Stations around the globe.

Join Pro

Comparision Forecast

View Surf forecast
   
Sun 04/26 4:30am  -   -  7 11 mph 1012.5mb - 79f
4:20am  -   -  7 9 mph 1012.6mb - 79f
4:10am  -   -  4 7 mph 1012.7mb - 79f
4:00am 2.5ft 13s 4 7 mph 1012.8mb 80f 79f
3:50am  -   -  7
mph
1012.8mb - 79f
3:40am  -   -  4 7 mph 1012.7mb - 79f
3:30am  -   -  4 7 mph 1012.8mb - 79f
3:20am  -   -  4 7 mph 1012.9mb - 79f
3:10am  -   -  4 7 mph 1012.9mb - 79f
3:00am 2.5ft 13s 4 7 mph 1012.9mb 80f 79f
2:50am  -   -  2 4 mph 1013mb - 79f
2:40am  -   -  2 4 mph 1012.9mb - 79f
2:30am  -   -  2 4 mph 1013mb - 79f
2:20am  -   -  2 4 mph 1013.1mb - 79f
2:10am  -   -  2 4 mph 1013.1mb - 79f
2:00am 3ft 13s 4 7 mph 1013.1mb 81f 80f
1:50am  -   -  4 7 mph 1012.9mb - 80f
1:40am  -   -  7 9 mph 1012.9mb - 80f
1:30am  -   -  7 9 mph 1013.1mb - 80f
1:20am  -   -  7 9 mph 1013.2mb - 80f
1:10am  -   -  7 9 mph 1013.3mb - 80f
1:00am 2.5ft 13s 7 9 mph 1013.5mb 81f 80f
12:50am  -   -  7 9 mph 1013.6mb - 80f
12:40am  -   -  7 9 mph 1013.7mb - 80f
12:30am  -   -  7 9 mph 1013.8mb - 80f
12:20am  -   -  7 9 mph 1014mb - 81f
12:10am  -   -  7 9 mph 1014.2mb - 81f
12:00am 3ft 13s 7 9 mph 1014.2mb 81f 81f
Sat 04/25 11:30pm  -   -  4 7 mph 1014.6mb - 81f
11:20pm  -   -  4 7 mph 1014.6mb - 81f
11:10pm  -   -  4 9 mph 1014.6mb - 81f
11:00pm 3ft 13s 7 9 mph 1014.7mb 81f 81f
10:50pm  -   -  7 9 mph 1014.9mb - 81f
10:40pm  -   -  4 7 mph 1014.9mb - 81f
10:30pm  -   -  4 7 mph 1015mb - 81f
10:20pm  -   -  7
mph
1014.9mb - 82f
10:10pm  -   -  7 9 mph 1014.9mb - 82f
10:00pm 3ft 13s 7
mph
1014.6mb 81f 82f
9:50pm  -   -  7 9 mph 1014.5mb - 82f
9:40pm  -   -  7 9 mph 1014.4mb - 82f
9:30pm  -   -  7 9 mph 1014.3mb - 82f
9:20pm  -   -  7 9 mph 1014.2mb - 82f
9:10pm  -   -  7 9 mph 1014.1mb - 82f
9:00pm 3ft 14s 4 7 mph 1014mb 81f 82f
8:50pm  -   -  7 9 mph 1014mb - 82f
8:40pm  -   -  7 9 mph 1013.8mb - 82f
8:30pm  -   -  9 11 mph 1013.9mb - 82f
8:20pm  -   -  9 13 mph 1013.8mb - 82f
8:10pm  -   -  9 11 mph 1013.7mb - 82f
8:00pm 3.5ft 13s 9 11 mph 1013.5mb 81f 82f
7:50pm  -   -  9 11 mph 1013.5mb - 82f
7:40pm  -   -  11 13 mph 1013.3mb - 82f
7:30pm  -   -  11 13 mph 1013.3mb - 82f
7:20pm  -   -  9 11 mph 1013.2mb - 82f
7:10pm  -   -  11 16 mph 1013.1mb - 82f
7:00pm 3ft 13s 11 16 mph 1013mb 81f 82f
6:50pm  -   -  9 13 mph 1012.9mb - 82f
6:40pm  -   -  13 18 mph 1012.6mb - 82f
6:30pm  -   -  13 18 mph 1012.5mb - 82f
6:20pm  -   -  13 18 mph 1012.5mb - 82f
6:10pm  -   -  13 20 mph 1012.3mb - 83f
6:00pm 3ft 13s 16 22 mph 1012mb 82f 84f
5:50pm  -   -  13 18 mph 1011.8mb - 87f
5:40pm  -   -  13 18 mph 1011.7mb - 87f
5:30pm  -   -  11 16 mph 1011.5mb - 87f
5:20pm  -   -  11 13 mph 1011.4mb - 87f
5:10pm  -   -  11 18 mph 1011.4mb - 87f
5:00pm 3.5ft 13s 9 16 mph 1011.3mb 82f 88f
4:50pm  -   -  9 13 mph 1011.4mb - 88f
4:40pm  -   -  9 11 mph 1011.4mb - 88f
4:30pm  -   -  9 13 mph 1011.4mb - 84f
4:20pm  -   -  11 16 mph 1011.6mb - 84f
4:10pm  -   -  11 16 mph 1011.6mb - 84f
4:00pm 3.5ft 13s 11 16 mph 1011.7mb 82f 84f
3:50pm  -   -  13 16 mph 1011.7mb - 84f
3:40pm  -   -  11 16 mph 1011.7mb - 83f
3:30pm  -   -  13 16 mph 1011.9mb - 83f
3:20pm  -   -  13 16 mph 1012mb - 83f
3:10pm  -   -  13 16 mph 1012mb - 82f
3:00pm 4ft 13s 13 16 mph 1012.1mb 82f 82f
2:50pm  -   -  13 16 mph 1012.2mb - 82f
2:40pm  -   -  13 18 mph 1012.2mb - 82f
2:30pm  -   -  16 20 mph 1012.3mb - 82f
2:20pm  -   -  16 18 mph 1012.6mb - 82f
2:10pm  -   -  16 18 mph 1012.7mb - 82f
2:00pm 3.5ft 13s 16 18 mph 1012.9mb 82f 82f
1:50pm  -   -  16 18 mph 1013.2mb - 82f
1:40pm  -   -  13 18 mph 1013.4mb - 82f
1:30pm  -   -  16 18 mph 1013.4mb - 81f
1:20pm  -   -  13 18 mph 1013.6mb - 81f
1:10pm  -   -  13 18 mph 1013.7mb - 81f
1:00pm 4ft 14s 16 18 mph 1013.8mb 82f 81f
12:50pm  -   -  13 18 mph 1014mb - 81f
12:40pm  -   -  13 16 mph 1014.1mb - 82f
12:30pm  -   -  13 16 mph 1014.3mb - 82f
12:20pm  -   -  11 13 mph 1014.4mb - 82f
12:10pm  -   -  11 13 mph 1014.4mb - 81f
12:00pm 3ft 14s 11 16 mph 1014.6mb 81f 81f